sensor_id;sensor_type;location;lat;lon;timestamp;pressure;altitude;pressure_sealevel;temperature;humidity
59831;BME280;45711;50.108;13.712;2022-08-19T00:01:33;97115.28;;;23.78;67.59
59831;BME280;45711;50.108;13.712;2022-08-19T00:04:00;97124.75;;;23.25;68.11
59831;BME280;45711;50.108;13.712;2022-08-19T00:06:26;97118.78;;;23.05;68.85
59831;BME280;45711;50.108;13.712;2022-08-19T00:08:52;97119.97;;;23.08;70.35
59831;BME280;45711;50.108;13.712;2022-08-19T00:11:18;97126.94;;;23.05;70.08
59831;BME280;45711;50.108;13.712;2022-08-19T00:13:45;97129.88;;;23.34;68.50
59831;BME280;45711;50.108;13.712;2022-08-19T00:16:13;97121.38;;;23.50;69.34
59831;BME280;45711;50.108;13.712;2022-08-19T00:18:39;97116.50;;;23.15;70.40
59831;BME280;45711;50.108;13.712;2022-08-19T00:21:04;97120.72;;;23.05;70.63
59831;BME280;45711;50.108;13.712;2022-08-19T00:23:32;97121.28;;;23.32;68.27
59831;BME280;45711;50.108;13.712;2022-08-19T00:26:00;97111.59;;;22.87;71.51
59831;BME280;45711;50.108;13.712;2022-08-19T00:28:25;97104.56;;;23.44;67.65
59831;BME280;45711;50.108;13.712;2022-08-19T00:30:52;97098.97;;;23.99;65.92
59831;BME280;45711;50.108;13.712;2022-08-19T00:33:18;97095.22;;;23.49;68.13
59831;BME280;45711;50.108;13.712;2022-08-19T00:35:44;97092.28;;;23.10;69.81
59831;BME280;45711;50.108;13.712;2022-08-19T00:38:09;97098.84;;;23.01;69.07
59831;BME280;45711;50.108;13.712;2022-08-19T00:40:35;97092.19;;;23.61;66.57
59831;BME280;45711;50.108;13.712;2022-08-19T00:43:00;97081.63;;;23.63;66.40
59831;BME280;45711;50.108;13.712;2022-08-19T00:45:27;97060.31;;;23.97;64.95
59831;BME280;45711;50.108;13.712;2022-08-19T00:47:58;97039.28;;;23.11;68.34
59831;BME280;45711;50.108;13.712;2022-08-19T00:50:24;97035.34;;;23.04;67.39
59831;BME280;45711;50.108;13.712;2022-08-19T00:52:50;97036.75;;;23.57;65.18
59831;BME280;45711;50.108;13.712;2022-08-19T00:55:19;97051.31;;;22.99;67.42
59831;BME280;45711;50.108;13.712;2022-08-19T00:57:49;97043.56;;;23.12;66.87
59831;BME280;45711;50.108;13.712;2022-08-19T01:00:18;97049.94;;;22.75;67.75
59831;BME280;45711;50.108;13.712;2022-08-19T01:02:44;97063.50;;;22.64;69.09
59831;BME280;45711;50.108;13.712;2022-08-19T01:05:14;97065.44;;;22.60;68.70
59831;BME280;45711;50.108;13.712;2022-08-19T01:07:40;97074.00;;;22.62;68.91
59831;BME280;45711;50.108;13.712;2022-08-19T01:10:08;97072.75;;;22.52;70.17
59831;BME280;45711;50.108;13.712;2022-08-19T01:12:34;97094.91;;;22.47;68.77
59831;BME280;45711;50.108;13.712;2022-08-19T01:15:00;97103.56;;;22.56;68.83
59831;BME280;45711;50.108;13.712;2022-08-19T01:17:26;97112.13;;;22.58;69.04
59831;BME280;45711;50.108;13.712;2022-08-19T01:19:52;97120.47;;;22.32;69.91
59831;BME280;45711;50.108;13.712;2022-08-19T01:22:25;97114.63;;;22.30;70.27
59831;BME280;45711;50.108;13.712;2022-08-19T01:24:52;97110.63;;;22.20;71.02
59831;BME280;45711;50.108;13.712;2022-08-19T01:27:18;97119.06;;;22.12;70.92
59831;BME280;45711;50.108;13.712;2022-08-19T01:29:44;97121.75;;;22.08;71.06
59831;BME280;45711;50.108;13.712;2022-08-19T01:32:12;97125.72;;;22.14;71.21
59831;BME280;45711;50.108;13.712;2022-08-19T01:34:38;97129.41;;;21.95;71.76
59831;BME280;45711;50.108;13.712;2022-08-19T01:37:06;97130.13;;;21.92;71.17
59831;BME280;45711;50.108;13.712;2022-08-19T01:39:34;97133.03;;;21.76;72.36
59831;BME280;45711;50.108;13.712;2022-08-19T01:42:00;97129.91;;;21.44;73.03
59831;BME280;45711;50.108;13.712;2022-08-19T01:44:28;97136.91;;;21.45;73.35
59831;BME280;45711;50.108;13.712;2022-08-19T01:46:54;97130.97;;;21.36;73.19
59831;BME280;45711;50.108;13.712;2022-08-19T01:49:22;97135.19;;;21.60;72.08
59831;BME280;45711;50.108;13.712;2022-08-19T01:51:49;97143.56;;;21.48;73.08
59831;BME280;45711;50.108;13.712;2022-08-19T01:54:16;97144.41;;;21.52;72.31
59831;BME280;45711;50.108;13.712;2022-08-19T01:56:44;97137.31;;;21.44;72.27
59831;BME280;45711;50.108;13.712;2022-08-19T01:59:13;97145.75;;;21.35;72.62
59831;BME280;45711;50.108;13.712;2022-08-19T02:01:39;97150.44;;;21.38;72.79
59831;BME280;45711;50.108;13.712;2022-08-19T02:04:05;97154.00;;;21.72;71.70
59831;BME280;45711;50.108;13.712;2022-08-19T02:06:31;97144.19;;;21.94;71.12
59831;BME280;45711;50.108;13.712;2022-08-19T02:08:58;97142.38;;;21.75;71.59
59831;BME280;45711;50.108;13.712;2022-08-19T02:11:27;97132.94;;;21.66;71.17
59831;BME280;45711;50.108;13.712;2022-08-19T02:13:54;97128.13;;;21.55;72.01
59831;BME280;45711;50.108;13.712;2022-08-19T02:16:20;97136.06;;;21.38;72.47
59831;BME280;45711;50.108;13.712;2022-08-19T02:18:46;97151.91;;;21.32;72.15
59831;BME280;45711;50.108;13.712;2022-08-19T02:21:14;97164.25;;;21.52;71.36
59831;BME280;45711;50.108;13.712;2022-08-19T02:23:40;97165.72;;;21.46;71.65
59831;BME280;45711;50.108;13.712;2022-08-19T02:26:06;97167.44;;;21.58;71.35
59831;BME280;45711;50.108;13.712;2022-08-19T02:28:31;97158.63;;;21.68;70.87
59831;BME280;45711;50.108;13.712;2022-08-19T02:30:59;97162.66;;;21.78;70.65
59831;BME280;45711;50.108;13.712;2022-08-19T02:33:25;97167.72;;;21.79;70.66
59831;BME280;45711;50.108;13.712;2022-08-19T02:35:51;97164.47;;;22.00;69.54
59831;BME280;45711;50.108;13.712;2022-08-19T02:38:17;97164.88;;;21.72;70.82
59831;BME280;45711;50.108;13.712;2022-08-19T02:40:53;97173.44;;;22.01;69.85
59831;BME280;45711;50.108;13.712;2022-08-19T02:43:19;97176.44;;;21.92;70.20
59831;BME280;45711;50.108;13.712;2022-08-19T02:45:45;97179.03;;;21.81;70.20
59831;BME280;45711;50.108;13.712;2022-08-19T02:48:15;97177.59;;;21.61;71.31
59831;BME280;45711;50.108;13.712;2022-08-19T02:50:41;97174.38;;;21.82;70.58
59831;BME280;45711;50.108;13.712;2022-08-19T02:53:07;97181.88;;;21.62;71.72
59831;BME280;45711;50.108;13.712;2022-08-19T02:55:33;97180.88;;;21.74;71.31
59831;BME280;45711;50.108;13.712;2022-08-19T02:57:59;97198.16;;;21.32;72.59
59831;BME280;45711;50.108;13.712;2022-08-19T03:00:25;97203.78;;;21.43;72.20
59831;BME280;45711;50.108;13.712;2022-08-19T03:02:51;97200.56;;;21.37;72.27
59831;BME280;45711;50.108;13.712;2022-08-19T03:05:18;97202.94;;;21.65;71.59
59831;BME280;45711;50.108;13.712;2022-08-19T03:07:44;97213.16;;;21.75;71.07
59831;BME280;45711;50.108;13.712;2022-08-19T03:10:12;97203.75;;;21.69;71.22
59831;BME280;45711;50.108;13.712;2022-08-19T03:12:38;97206.09;;;21.71;71.22
59831;BME280;45711;50.108;13.712;2022-08-19T03:15:05;97194.72;;;21.92;70.45
59831;BME280;45711;50.108;13.712;2022-08-19T03:17:32;97192.03;;;22.25;69.25
59831;BME280;45711;50.108;13.712;2022-08-19T03:19:58;97191.25;;;21.95;70.40
59831;BME280;45711;50.108;13.712;2022-08-19T03:22:25;97184.44;;;21.78;71.33
59831;BME280;45711;50.108;13.712;2022-08-19T03:24:50;97184.72;;;21.69;71.75
59831;BME280;45711;50.108;13.712;2022-08-19T03:27:16;97191.25;;;21.65;72.01
59831;BME280;45711;50.108;13.712;2022-08-19T03:29:43;97200.75;;;21.48;72.91
59831;BME280;45711;50.108;13.712;2022-08-19T03:32:10;97196.28;;;21.36;73.74
59831;BME280;45711;50.108;13.712;2022-08-19T03:34:37;97186.91;;;21.60;73.19
59831;BME280;45711;50.108;13.712;2022-08-19T03:37:05;97179.34;;;21.46;73.86
59831;BME280;45711;50.108;13.712;2022-08-19T03:39:33;97181.97;;;21.69;72.69
59831;BME280;45711;50.108;13.712;2022-08-19T03:42:00;97175.34;;;21.40;73.71
59831;BME280;45711;50.108;13.712;2022-08-19T03:44:29;97166.28;;;21.32;74.20
59831;BME280;45711;50.108;13.712;2022-08-19T03:46:56;97158.47;;;21.31;74.71
59831;BME280;45711;50.108;13.712;2022-08-19T03:49:23;97166.00;;;21.38;74.25
59831;BME280;45711;50.108;13.712;2022-08-19T03:51:49;97176.25;;;21.48;73.97
59831;BME280;45711;50.108;13.712;2022-08-19T03:54:17;97179.00;;;21.02;75.76
59831;BME280;45711;50.108;13.712;2022-08-19T03:56:46;97177.66;;;21.38;74.78
59831;BME280;45711;50.108;13.712;2022-08-19T03:59:15;97171.69;;;21.55;74.17
59831;BME280;45711;50.108;13.712;2022-08-19T04:01:40;97176.66;;;21.50;74.17
59831;BME280;45711;50.108;13.712;2022-08-19T04:04:06;97166.19;;;21.52;74.36
59831;BME280;45711;50.108;13.712;2022-08-19T04:06:33;97161.88;;;21.24;75.35
59831;BME280;45711;50.108;13.712;2022-08-19T04:09:01;97162.34;;;21.30;75.50
59831;BME280;45711;50.108;13.712;2022-08-19T04:11:29;97179.69;;;21.45;74.68
59831;BME280;45711;50.108;13.712;2022-08-19T04:13:57;97180.31;;;21.61;74.05
59831;BME280;45711;50.108;13.712;2022-08-19T04:16:25;97186.78;;;21.26;74.96
59831;BME280;45711;50.108;13.712;2022-08-19T04:18:53;97197.00;;;21.33;75.14
59831;BME280;45711;50.108;13.712;2022-08-19T04:21:21;97200.69;;;21.21;75.60
59831;BME280;45711;50.108;13.712;2022-08-19T04:23:48;97201.47;;;21.45;74.30
59831;BME280;45711;50.108;13.712;2022-08-19T04:26:14;97215.53;;;21.50;74.13
59831;BME280;45711;50.108;13.712;2022-08-19T04:28:39;97214.47;;;21.55;73.77
59831;BME280;45711;50.108;13.712;2022-08-19T04:31:12;97209.22;;;21.43;73.98
59831;BME280;45711;50.108;13.712;2022-08-19T04:33:39;97223.56;;;21.40;74.59
59831;BME280;45711;50.108;13.712;2022-08-19T04:36:05;97225.13;;;21.41;74.30
59831;BME280;45711;50.108;13.712;2022-08-19T04:38:30;97231.53;;;21.29;74.98
59831;BME280;45711;50.108;13.712;2022-08-19T04:40:56;97236.75;;;21.38;74.83
59831;BME280;45711;50.108;13.712;2022-08-19T04:43:40;97247.00;;;21.48;74.48
59831;BME280;45711;50.108;13.712;2022-08-19T04:46:10;97241.25;;;21.30;75.08
59831;BME280;45711;50.108;13.712;2022-08-19T04:48:36;97250.53;;;21.25;75.45
59831;BME280;45711;50.108;13.712;2022-08-19T04:51:06;97261.09;;;21.53;74.42
59831;BME280;45711;50.108;13.712;2022-08-19T04:53:35;97258.31;;;21.50;74.32
59831;BME280;45711;50.108;13.712;2022-08-19T04:56:08;97262.38;;;21.14;76.32
59831;BME280;45711;50.108;13.712;2022-08-19T04:58:38;97280.94;;;21.31;75.92
59831;BME280;45711;50.108;13.712;2022-08-19T05:01:04;97275.78;;;21.49;75.24
59831;BME280;45711;50.108;13.712;2022-08-19T05:03:32;97291.16;;;21.61;74.90
59831;BME280;45711;50.108;13.712;2022-08-19T05:06:04;97295.72;;;21.79;74.35
59831;BME280;45711;50.108;13.712;2022-08-19T05:08:30;97302.69;;;21.54;75.21
59831;BME280;45711;50.108;13.712;2022-08-19T05:10:56;97299.38;;;22.17;71.52
59831;BME280;45711;50.108;13.712;2022-08-19T05:13:22;97297.34;;;22.41;71.44
59831;BME280;45711;50.108;13.712;2022-08-19T05:15:54;97303.50;;;22.68;69.99
59831;BME280;45711;50.108;13.712;2022-08-19T05:18:20;97300.88;;;21.88;73.46
59831;BME280;45711;50.108;13.712;2022-08-19T05:21:07;97307.06;;;22.38;71.54
59831;BME280;45711;50.108;13.712;2022-08-19T05:23:51;97312.03;;;22.32;71.30
59831;BME280;45711;50.108;13.712;2022-08-19T05:26:17;97315.97;;;22.35;70.93
59831;BME280;45711;50.108;13.712;2022-08-19T05:28:43;97311.75;;;22.75;68.65
59831;BME280;45711;50.108;13.712;2022-08-19T05:31:08;97313.72;;;23.08;66.81
59831;BME280;45711;50.108;13.712;2022-08-19T05:33:34;97321.06;;;22.70;69.42
59831;BME280;45711;50.108;13.712;2022-08-19T05:36:00;97325.97;;;23.28;66.76
59831;BME280;45711;50.108;13.712;2022-08-19T05:38:30;97321.91;;;23.12;67.46
59831;BME280;45711;50.108;13.712;2022-08-19T05:40:56;97330.28;;;23.33;65.87
59831;BME280;45711;50.108;13.712;2022-08-19T05:43:21;97334.44;;;23.61;65.06
59831;BME280;45711;50.108;13.712;2022-08-19T05:45:47;97324.16;;;23.43;64.91
59831;BME280;45711;50.108;13.712;2022-08-19T05:48:13;97321.66;;;23.68;65.57
59831;BME280;45711;50.108;13.712;2022-08-19T05:50:40;97319.44;;;23.40;65.71
59831;BME280;45711;50.108;13.712;2022-08-19T05:53:06;97310.66;;;23.61;64.74
59831;BME280;45711;50.108;13.712;2022-08-19T05:55:34;97308.72;;;23.17;66.07
59831;BME280;45711;50.108;13.712;2022-08-19T05:57:59;97306.66;;;23.07;67.52
59831;BME280;45711;50.108;13.712;2022-08-19T06:00:27;97305.97;;;22.80;69.16
59831;BME280;45711;50.108;13.712;2022-08-19T06:02:52;97317.31;;;22.82;69.19
59831;BME280;45711;50.108;13.712;2022-08-19T06:05:19;97318.25;;;22.97;68.74
59831;BME280;45711;50.108;13.712;2022-08-19T06:07:51;97324.56;;;22.71;69.79
59831;BME280;45711;50.108;13.712;2022-08-19T06:10:19;97327.50;;;22.89;69.14
59831;BME280;45711;50.108;13.712;2022-08-19T06:12:54;97331.69;;;22.79;69.18
59831;BME280;45711;50.108;13.712;2022-08-19T06:15:21;97347.13;;;22.68;69.94
59831;BME280;45711;50.108;13.712;2022-08-19T06:17:56;97342.84;;;22.67;69.90
59831;BME280;45711;50.108;13.712;2022-08-19T06:20:21;97343.25;;;23.02;67.90
59831;BME280;45711;50.108;13.712;2022-08-19T06:22:48;97356.91;;;22.69;69.73
59831;BME280;45711;50.108;13.712;2022-08-19T06:25:16;97365.25;;;22.53;70.04
59831;BME280;45711;50.108;13.712;2022-08-19T06:27:42;97364.31;;;22.72;69.23
59831;BME280;45711;50.108;13.712;2022-08-19T06:30:10;97353.31;;;23.32;66.99
59831;BME280;45711;50.108;13.712;2022-08-19T06:32:37;97363.44;;;23.72;66.14
59831;BME280;45711;50.108;13.712;2022-08-19T06:35:04;97355.31;;;23.39;67.40
59831;BME280;45711;50.108;13.712;2022-08-19T06:37:30;97360.78;;;23.39;66.74
59831;BME280;45711;50.108;13.712;2022-08-19T06:39:56;97364.38;;;23.50;66.57
59831;BME280;45711;50.108;13.712;2022-08-19T06:42:21;97361.09;;;23.71;65.65
59831;BME280;45711;50.108;13.712;2022-08-19T06:44:48;97363.59;;;23.90;65.73
59831;BME280;45711;50.108;13.712;2022-08-19T06:47:17;97362.50;;;24.05;64.95
59831;BME280;45711;50.108;13.712;2022-08-19T06:49:44;97351.34;;;23.70;64.61
59831;BME280;45711;50.108;13.712;2022-08-19T06:52:10;97367.81;;;23.84;64.63
59831;BME280;45711;50.108;13.712;2022-08-19T06:54:37;97369.78;;;23.83;64.28
59831;BME280;45711;50.108;13.712;2022-08-19T06:57:05;97372.91;;;23.82;64.70
59831;BME280;45711;50.108;13.712;2022-08-19T06:59:31;97377.22;;;24.42;62.52
59831;BME280;45711;50.108;13.712;2022-08-19T07:02:00;97377.25;;;24.49;62.81
59831;BME280;45711;50.108;13.712;2022-08-19T07:04:30;97363.41;;;25.07;61.31
59831;BME280;45711;50.108;13.712;2022-08-19T07:07:00;97359.22;;;25.71;58.42
59831;BME280;45711;50.108;13.712;2022-08-19T07:09:27;97353.38;;;25.69;58.61
59831;BME280;45711;50.108;13.712;2022-08-19T07:11:53;97353.38;;;25.79;57.49
59831;BME280;45711;50.108;13.712;2022-08-19T07:14:21;97354.06;;;25.12;59.32
59831;BME280;45711;50.108;13.712;2022-08-19T07:16:49;97362.63;;;25.00;59.73
59831;BME280;45711;50.108;13.712;2022-08-19T07:19:15;97367.91;;;24.53;60.96
59831;BME280;45711;50.108;13.712;2022-08-19T07:21:42;97353.06;;;24.58;60.58
59831;BME280;45711;50.108;13.712;2022-08-19T07:24:08;97367.50;;;24.55;61.23
59831;BME280;45711;50.108;13.712;2022-08-19T07:26:38;97349.88;;;24.45;61.41
59831;BME280;45711;50.108;13.712;2022-08-19T07:29:04;97338.56;;;24.43;61.18
59831;BME280;45711;50.108;13.712;2022-08-19T07:31:30;97345.34;;;24.78;60.33
59831;BME280;45711;50.108;13.712;2022-08-19T07:33:57;97349.84;;;24.42;61.04
59831;BME280;45711;50.108;13.712;2022-08-19T07:36:25;97357.00;;;24.61;60.77
59831;BME280;45711;50.108;13.712;2022-08-19T07:38:59;97359.78;;;24.71;60.44
59831;BME280;45711;50.108;13.712;2022-08-19T07:41:27;97360.88;;;24.60;60.28
59831;BME280;45711;50.108;13.712;2022-08-19T07:43:54;97355.41;;;24.56;60.97
59831;BME280;45711;50.108;13.712;2022-08-19T07:46:20;97341.84;;;24.88;59.71
59831;BME280;45711;50.108;13.712;2022-08-19T07:48:46;97337.25;;;25.10;59.17
59831;BME280;45711;50.108;13.712;2022-08-19T07:51:14;97336.03;;;25.00;59.00
59831;BME280;45711;50.108;13.712;2022-08-19T07:53:40;97339.59;;;25.19;58.74
59831;BME280;45711;50.108;13.712;2022-08-19T07:56:07;97343.03;;;24.98;59.10
59831;BME280;45711;50.108;13.712;2022-08-19T07:58:39;97348.13;;;24.92;59.03
59831;BME280;45711;50.108;13.712;2022-08-19T08:01:09;97350.84;;;24.89;58.67
59831;BME280;45711;50.108;13.712;2022-08-19T08:03:36;97355.66;;;25.17;57.82
59831;BME280;45711;50.108;13.712;2022-08-19T08:06:21;97351.00;;;25.64;57.20
59831;BME280;45711;50.108;13.712;2022-08-19T08:09:06;97352.00;;;27.47;52.16
59831;BME280;45711;50.108;13.712;2022-08-19T08:11:44;97353.06;;;27.60;51.28
59831;BME280;45711;50.108;13.712;2022-08-19T08:14:15;97349.84;;;27.76;50.32
59831;BME280;45711;50.108;13.712;2022-08-19T08:16:42;97345.56;;;27.68;50.80
59831;BME280;45711;50.108;13.712;2022-08-19T08:19:09;97346.41;;;27.61;51.17
59831;BME280;45711;50.108;13.712;2022-08-19T08:21:36;97341.06;;;26.70;53.05
59831;BME280;45711;50.108;13.712;2022-08-19T08:24:01;97340.03;;;26.10;54.79
59831;BME280;45711;50.108;13.712;2022-08-19T08:26:27;97344.31;;;26.11;54.90
59831;BME280;45711;50.108;13.712;2022-08-19T08:28:54;97340.44;;;26.01;55.80
59831;BME280;45711;50.108;13.712;2022-08-19T08:31:20;97331.81;;;26.06;55.26
59831;BME280;45711;50.108;13.712;2022-08-19T08:33:46;97342.34;;;26.15;54.95
59831;BME280;45711;50.108;13.712;2022-08-19T08:36:12;97333.41;;;25.86;55.07
59831;BME280;45711;50.108;13.712;2022-08-19T08:38:39;97328.31;;;25.92;55.77
59831;BME280;45711;50.108;13.712;2022-08-19T08:41:11;97328.69;;;25.44;56.99
59831;BME280;45711;50.108;13.712;2022-08-19T08:43:45;97335.72;;;25.34;57.13
59831;BME280;45711;50.108;13.712;2022-08-19T08:46:16;97330.25;;;25.52;56.76
59831;BME280;45711;50.108;13.712;2022-08-19T08:48:47;97347.84;;;25.33;57.58
59831;BME280;45711;50.108;13.712;2022-08-19T08:51:18;97350.59;;;25.40;57.62
59831;BME280;45711;50.108;13.712;2022-08-19T08:53:50;97362.31;;;25.41;57.20
59831;BME280;45711;50.108;13.712;2022-08-19T08:56:16;97369.38;;;25.42;57.33
59831;BME280;45711;50.108;13.712;2022-08-19T08:58:49;97379.97;;;25.61;56.57
59831;BME280;45711;50.108;13.712;2022-08-19T09:01:17;97380.75;;;25.58;56.70
59831;BME280;45711;50.108;13.712;2022-08-19T09:03:44;97378.00;;;25.62;56.05
59831;BME280;45711;50.108;13.712;2022-08-19T09:06:14;97384.25;;;25.55;56.50
59831;BME280;45711;50.108;13.712;2022-08-19T09:08:46;97387.00;;;25.66;56.24
59831;BME280;45711;50.108;13.712;2022-08-19T09:11:35;97378.38;;;25.46;56.90
59831;BME280;45711;50.108;13.712;2022-08-19T09:14:11;97382.28;;;25.38;57.13
59831;BME280;45711;50.108;13.712;2022-08-19T09:16:42;97381.50;;;25.44;56.51
59831;BME280;45711;50.108;13.712;2022-08-19T09:19:08;97388.19;;;25.65;56.39
59831;BME280;45711;50.108;13.712;2022-08-19T09:21:36;97383.91;;;25.78;56.30
59831;BME280;45711;50.108;13.712;2022-08-19T09:24:02;97385.06;;;26.02;55.11
59831;BME280;45711;50.108;13.712;2022-08-19T09:26:30;97391.31;;;26.20;54.73
59831;BME280;45711;50.108;13.712;2022-08-19T09:28:58;97384.22;;;26.33;54.69
59831;BME280;45711;50.108;13.712;2022-08-19T09:31:26;97385.41;;;26.32;54.30
59831;BME280;45711;50.108;13.712;2022-08-19T09:33:54;97378.81;;;26.12;54.71
59831;BME280;45711;50.108;13.712;2022-08-19T09:36:23;97372.94;;;26.10;54.98
59831;BME280;45711;50.108;13.712;2022-08-19T09:38:50;97373.34;;;25.84;55.44
59831;BME280;45711;50.108;13.712;2022-08-19T09:41:20;97386.25;;;25.94;55.59
59831;BME280;45711;50.108;13.712;2022-08-19T09:43:49;97376.06;;;25.94;55.53
59831;BME280;45711;50.108;13.712;2022-08-19T09:46:19;97372.16;;;26.02;55.42
59831;BME280;45711;50.108;13.712;2022-08-19T09:48:46;97376.47;;;25.96;55.31
59831;BME280;45711;50.108;13.712;2022-08-19T09:51:18;97376.47;;;26.03;55.31
59831;BME280;45711;50.108;13.712;2022-08-19T09:53:45;97374.50;;;26.04;55.20
59831;BME280;45711;50.108;13.712;2022-08-19T09:56:12;97376.06;;;26.09;55.03
59831;BME280;45711;50.108;13.712;2022-08-19T09:58:39;97375.28;;;25.94;55.30
59831;BME280;45711;50.108;13.712;2022-08-19T10:01:06;97376.88;;;25.91;55.50
59831;BME280;45711;50.108;13.712;2022-08-19T10:03:33;97374.13;;;25.95;55.57
59831;BME280;45711;50.108;13.712;2022-08-19T10:06:01;97372.94;;;25.96;55.23
59831;BME280;45711;50.108;13.712;2022-08-19T10:08:30;97370.97;;;25.89;55.38
59831;BME280;45711;50.108;13.712;2022-08-19T10:10:56;97375.25;;;25.47;56.58
59831;BME280;45711;50.108;13.712;2022-08-19T10:13:24;97396.72;;;25.27;57.20
59831;BME280;45711;50.108;13.712;2022-08-19T10:15:52;97383.31;;;24.94;57.99
59831;BME280;45711;50.108;13.712;2022-08-19T10:18:20;97390.88;;;25.36;56.93
59831;BME280;45711;50.108;13.712;2022-08-19T10:20:47;97385.81;;;25.38;57.16
59831;BME280;45711;50.108;13.712;2022-08-19T10:23:13;97386.22;;;25.44;57.27
59831;BME280;45711;50.108;13.712;2022-08-19T10:25:42;97393.19;;;25.23;56.79
59831;BME280;45711;50.108;13.712;2022-08-19T10:28:08;97399.47;;;25.31;56.37
59831;BME280;45711;50.108;13.712;2022-08-19T10:30:37;97391.28;;;25.31;56.78
59831;BME280;45711;50.108;13.712;2022-08-19T10:33:03;97393.56;;;25.15;56.42
59831;BME280;45711;50.108;13.712;2022-08-19T10:35:30;97392.84;;;25.46;56.47
59831;BME280;45711;50.108;13.712;2022-08-19T10:37:56;97392.88;;;25.43;55.45
59831;BME280;45711;50.108;13.712;2022-08-19T10:40:27;97387.03;;;25.76;55.13
59831;BME280;45711;50.108;13.712;2022-08-19T10:42:55;97385.06;;;25.73;54.94
59831;BME280;45711;50.108;13.712;2022-08-19T10:45:21;97392.94;;;25.78;55.69
59831;BME280;45711;50.108;13.712;2022-08-19T10:47:51;97384.25;;;25.41;55.80
59831;BME280;45711;50.108;13.712;2022-08-19T10:50:17;97375.66;;;25.49;56.58
59831;BME280;45711;50.108;13.712;2022-08-19T10:53:04;97376.06;;;25.69;56.21
59831;BME280;45711;50.108;13.712;2022-08-19T10:55:30;97387.81;;;25.73;55.33
59831;BME280;45711;50.108;13.712;2022-08-19T10:58:17;97380.34;;;25.63;55.92
59831;BME280;45711;50.108;13.712;2022-08-19T11:00:51;97379.97;;;25.61;55.92
59831;BME280;45711;50.108;13.712;2022-08-19T11:03:18;97387.03;;;25.84;55.54
59831;BME280;45711;50.108;13.712;2022-08-19T11:05:44;97382.34;;;25.84;55.01
59831;BME280;45711;50.108;13.712;2022-08-19T11:08:09;97379.97;;;25.61;55.65
59831;BME280;45711;50.108;13.712;2022-08-19T11:10:41;97383.91;;;25.96;55.39
59831;BME280;45711;50.108;13.712;2022-08-19T11:13:06;97389.41;;;25.96;54.25
59831;BME280;45711;50.108;13.712;2022-08-19T11:15:33;97391.72;;;25.90;54.96
59831;BME280;45711;50.108;13.712;2022-08-19T11:17:59;97398.00;;;25.84;54.29
59831;BME280;45711;50.108;13.712;2022-08-19T11:20:24;97391.75;;;25.87;54.60
59831;BME280;45711;50.108;13.712;2022-08-19T11:22:52;97396.47;;;25.86;54.36
59831;BME280;45711;50.108;13.712;2022-08-19T11:25:18;97394.88;;;25.92;55.14
59831;BME280;45711;50.108;13.712;2022-08-19T11:27:44;97396.81;;;26.13;53.68
59831;BME280;45711;50.108;13.712;2022-08-19T11:30:11;97392.13;;;26.03;54.96
59831;BME280;45711;50.108;13.712;2022-08-19T11:32:39;97386.25;;;26.01;54.78
59831;BME280;45711;50.108;13.712;2022-08-19T11:35:05;97397.22;;;26.01;54.85
59831;BME280;45711;50.108;13.712;2022-08-19T11:37:31;97393.31;;;25.84;54.19
59831;BME280;45711;50.108;13.712;2022-08-19T11:40:02;97387.72;;;25.23;56.73
59831;BME280;45711;50.108;13.712;2022-08-19T11:42:28;97395.94;;;25.23;57.09
59831;BME280;45711;50.108;13.712;2022-08-19T11:45:12;97394.34;;;25.08;57.24
59831;BME280;45711;50.108;13.712;2022-08-19T11:47:40;97402.50;;;25.01;57.61
59831;BME280;45711;50.108;13.712;2022-08-19T11:50:06;97396.25;;;25.07;57.43
59831;BME280;45711;50.108;13.712;2022-08-19T11:52:32;97391.94;;;25.06;57.65
59831;BME280;45711;50.108;13.712;2022-08-19T11:54:58;97393.53;;;25.04;57.89
59831;BME280;45711;50.108;13.712;2022-08-19T11:57:23;97403.25;;;24.91;58.48
59831;BME280;45711;50.108;13.712;2022-08-19T11:59:49;97401.41;;;25.23;57.49
59831;BME280;45711;50.108;13.712;2022-08-19T12:02:15;97403.66;;;24.96;58.04
59831;BME280;45711;50.108;13.712;2022-08-19T12:04:42;97406.34;;;24.86;58.47
59831;BME280;45711;50.108;13.712;2022-08-19T12:07:07;97399.25;;;24.70;59.06
59831;BME280;45711;50.108;13.712;2022-08-19T12:09:33;97393.19;;;25.20;58.06
59831;BME280;45711;50.108;13.712;2022-08-19T12:11:59;97392.47;;;25.58;57.14
59831;BME280;45711;50.108;13.712;2022-08-19T12:14:26;97384.25;;;25.73;56.61
59831;BME280;45711;50.108;13.712;2022-08-19T12:16:53;97388.97;;;25.76;56.62
59831;BME280;45711;50.108;13.712;2022-08-19T12:19:19;97383.88;;;25.71;56.27
59831;BME280;45711;50.108;13.712;2022-08-19T12:21:46;97386.22;;;25.54;56.40
59831;BME280;45711;50.108;13.712;2022-08-19T12:24:11;97374.53;;;25.79;55.54
59831;BME280;45711;50.108;13.712;2022-08-19T12:26:37;97376.88;;;25.91;56.06
59831;BME280;45711;50.108;13.712;2022-08-19T12:29:03;97377.22;;;25.43;56.70
59831;BME280;45711;50.108;13.712;2022-08-19T12:31:29;97376.84;;;25.73;56.13
59831;BME280;45711;50.108;13.712;2022-08-19T12:33:55;97371.78;;;25.86;55.47
59831;BME280;45711;50.108;13.712;2022-08-19T12:36:21;97364.31;;;25.76;55.84
59831;BME280;45711;50.108;13.712;2022-08-19T12:38:49;97355.69;;;25.99;55.47
59831;BME280;45711;50.108;13.712;2022-08-19T12:41:15;97362.38;;;26.12;55.37
59831;BME280;45711;50.108;13.712;2022-08-19T12:43:43;97358.81;;;26.22;55.02
59831;BME280;45711;50.108;13.712;2022-08-19T12:46:09;97361.97;;;26.17;55.02
59831;BME280;45711;50.108;13.712;2022-08-19T12:48:36;97361.56;;;26.22;54.98
59831;BME280;45711;50.108;13.712;2022-08-19T12:51:07;97361.97;;;26.14;55.12
59831;BME280;45711;50.108;13.712;2022-08-19T12:53:33;97357.63;;;26.34;55.31